• Join FlightAware (Why Join?)
  • Login
  • US Flag 
07:27PM EDT


 

Airport Tracker/Info


-or-


 

Live Flight TrackerFlight Track Log ✈ UCA3597 ✈ 26-Sep-2013 ✈ KIAD - KBGM

Flight Track Log - Related Links

Times and Time Zones

All times are in EDT time to prevent confusion due to time zone crossing. See the UCA3597 flight status page for this flight to view local times or setup timezone preferences in your user account.

Time Position Orientation Groundspeed Altitude Reporting Facility
EDT Latitude Longitude Course Direction KTS MPH feet Rate Location/Type
05:56PM 39.5538 -77.1960 19° North  Level Estimated
05:57PM 39.6144 -77.1693 19° North  Level Estimated
05:58PM 39.6750 -77.1426 19° North  Level Estimated
05:59PM 39.7367 -77.1154 19° North  Level Estimated
06:00PM 39.7985 -77.0881 19° North  Level Estimated
06:01PM 39.8602 -77.0608 19° North  Level Estimated
06:02PM 39.9219 -77.0334 19° North  Level Estimated
06:03PM 39.9836 -77.0059 19° North  Level Estimated
06:04PM 40.0453 -76.9784 19° North  Level Estimated
06:05PM 40.1070 -76.9509 19° North  Level Estimated
06:06PM 40.1687 -76.9233 19° North  Level Estimated
06:07PM 40.2304 -76.8957 19° North  Level Estimated
06:08PM 40.2921 -76.8680 19° North  Level Estimated
06:09PM 40.3537 -76.8402 19° North  Level Estimated
06:10PM 40.4154 -76.8124 19° North  Level Estimated
06:11PM 40.4771 -76.7846 19° North  Level Estimated
06:12PM 40.5387 -76.7567 19° North  Level Estimated
06:13PM 40.6003 -76.7287 19° North  Level Estimated
06:14PM 40.6620 -76.7007 19° North  Level Estimated
06:15PM 40.7236 -76.6727 19° North  Level Estimated
06:16PM 40.7852 -76.6446 19° North  Level Estimated
06:17PM 40.8469 -76.6164 19° North  Level Estimated
06:18PM 40.9085 -76.5882 19° North  Level Estimated
06:19PM 40.9701 -76.5600 19° North  Level Estimated
06:20PM 41.0317 -76.5316 19° North  Level Estimated
06:21PM 41.0933 -76.5033 19° North  Level Estimated
06:22PM 41.1548 -76.4749 19° North  Level Estimated
06:23PM 41.2164 -76.4464 19° North  Level Estimated
06:24PM 41.2780 -76.4179 19° North  Level Estimated
06:25PM 41.3395 -76.3893 19° North  Level Estimated
06:26PM 41.4011 -76.3606 19° North  Level Estimated
06:27PM 41.4626 -76.3319 19° North  Level Estimated
06:28PM 41.5242 -76.3032 19° North  Level Estimated
06:29PM 41.5857 -76.2744 19° North  Level Estimated
06:30PM 41.6472 -76.2456 19° North  Level Estimated
06:31PM 41.7087 -76.2167 19° North  Level Estimated
06:32PM 41.7702 -76.1877 19° North  Level Estimated
06:33PM 41.8317 -76.1587 19° North  Level Estimated
06:34PM 41.8932 -76.1296 19° North  Level Estimated
06:35PM 41.9547 -76.1004 19° North  Level Estimated
06:36PM 42.0162 -76.0713 19° North  Level Estimated
06:37PM 42.0777 -76.0420 19° North  Level Estimated
06:38PM 42.1391 -76.0127 19° North  Level Estimated
06:39PM 42.2006 -75.9834 19° North  Level Estimated
06:40PM 42.2084 -75.9796 20° North  Level Estimated
06:41PM 42.2084 -75.9796 35° Northeast  Level Estimated
06:42PM 42.2084 -75.9796 35° Northeast  Level Estimated
06:43PM 42.2084 -75.9796 35° Northeast  Level Estimated
06:44PM 42.2084 -75.9796 35° Northeast  Level Estimated
06:45PM 42.2084 -75.9796 35° Northeast  Level Estimated
06:46PM 42.2084 -75.9796 35° Northeast  Level Estimated
06:47PM 42.2084 -75.9796 35° Northeast  Level Estimated
06:48PM 42.2084 -75.9796 35° Northeast  Level Estimated
06:49PM 42.2084 -75.9796 35° Northeast  Level Estimated
06:50PM 42.2084 -75.9796 35° Northeast  Level Estimated
06:51PM 42.2084 -75.9796 35° Northeast  Level Estimated
06:52PM 42.2084 -75.9796 35° Northeast  Level Estimated
06:53PM 42.2084 -75.9796 35° Northeast  Level Estimated
06:54PM 42.2084 -75.9796 35° Northeast  Level Estimated
06:55PM 42.2084 -75.9796 35° Northeast  Level Estimated